createdAt,value
2022-08-03T00:02:21.065Z,21.06
2022-08-03T00:04:48.317Z,21.03
2022-08-03T00:07:15.648Z,21.03
2022-08-03T00:09:42.666Z,21.01
2022-08-03T00:12:09.696Z,20.96
2022-08-03T00:14:37.223Z,20.95
2022-08-03T00:17:04.100Z,20.92
2022-08-03T00:19:31.229Z,20.92
2022-08-03T00:21:58.331Z,20.91
2022-08-03T00:24:25.234Z,20.88
2022-08-03T00:26:52.708Z,20.86
2022-08-03T00:29:19.840Z,20.86
2022-08-03T00:31:52.459Z,20.84
2022-08-03T00:34:36.727Z,20.87
2022-08-03T00:37:13.982Z,20.85
2022-08-03T00:39:41.208Z,20.84
2022-08-03T00:42:08.173Z,20.84
2022-08-03T00:44:42.795Z,20.86
2022-08-03T00:47:10.905Z,20.85
2022-08-03T00:49:39.697Z,20.83
2022-08-03T00:52:11.787Z,20.82
2022-08-03T00:54:39.174Z,20.81
2022-08-03T00:57:07.280Z,20.82
2022-08-03T00:59:34.945Z,20.84
2022-08-03T01:02:01.918Z,20.82
2022-08-03T01:04:28.790Z,20.81
2022-08-03T01:06:58.499Z,20.82
2022-08-03T01:10:04.401Z,20.78
2022-08-03T01:12:44.216Z,20.76
2022-08-03T01:15:26.677Z,20.79
2022-08-03T01:17:59.579Z,20.81
2022-08-03T01:20:33.697Z,20.78
2022-08-03T01:23:20.979Z,20.77
2022-08-03T01:26:22.277Z,20.77
2022-08-03T01:29:07.965Z,20.78
2022-08-03T01:32:53.220Z,20.74
2022-08-03T01:34:37.088Z,20.73
2022-08-03T01:37:07.734Z,20.65
2022-08-03T01:39:38.589Z,20.63
2022-08-03T01:42:10.490Z,20.62
2022-08-03T01:44:41.735Z,20.59
2022-08-03T01:47:11.703Z,20.53
2022-08-03T01:49:45.798Z,20.51
2022-08-03T01:52:17.435Z,20.48
2022-08-03T01:54:46.684Z,20.48
2022-08-03T01:57:15.315Z,20.49
2022-08-03T01:59:45.458Z,20.50
2022-08-03T02:02:33.547Z,20.52
2022-08-03T02:05:03.673Z,20.50
2022-08-03T02:07:33.060Z,20.47
2022-08-03T02:10:02.999Z,20.48
2022-08-03T02:12:32.862Z,20.45
2022-08-03T02:15:01.224Z,20.45
2022-08-03T02:17:39.000Z,20.45
2022-08-03T02:20:09.107Z,20.46
2022-08-03T02:22:39.291Z,20.44
2022-08-03T02:25:10.631Z,20.45
2022-08-03T02:27:43.812Z,20.44
2022-08-03T02:30:13.811Z,20.46
2022-08-03T02:32:42.656Z,20.44
2022-08-03T02:35:15.416Z,20.41
2022-08-03T02:37:49.889Z,20.44
2022-08-03T02:40:19.591Z,20.41
2022-08-03T02:42:50.354Z,20.38
2022-08-03T02:45:20.562Z,20.34
2022-08-03T02:47:54.482Z,20.33
2022-08-03T02:50:23.627Z,20.37
2022-08-03T02:52:53.284Z,20.34
2022-08-03T02:55:22.994Z,20.35
2022-08-03T02:57:51.988Z,20.32
2022-08-03T03:00:27.827Z,20.31
2022-08-03T03:03:00.463Z,20.30
2022-08-03T03:05:52.387Z,20.30
2022-08-03T03:08:20.761Z,20.27
2022-08-03T03:10:55.526Z,20.25
2022-08-03T03:13:23.585Z,20.20
2022-08-03T03:15:52.223Z,20.24
2022-08-03T03:18:22.751Z,20.25
2022-08-03T03:20:53.179Z,20.19
2022-08-03T03:23:22.909Z,20.19
2022-08-03T03:25:50.944Z,20.15
2022-08-03T03:28:18.324Z,20.15
2022-08-03T03:30:53.065Z,20.14
2022-08-03T03:33:22.175Z,20.13
2022-08-03T03:35:49.697Z,20.10
2022-08-03T03:38:16.604Z,20.10
2022-08-03T03:40:44.124Z,20.07
2022-08-03T03:43:12.696Z,20.07
2022-08-03T03:45:45.412Z,20.07
2022-08-03T03:48:12.565Z,20.05
2022-08-03T03:50:41.137Z,20.04
2022-08-03T03:53:12.316Z,20.06
2022-08-03T03:55:57.938Z,20.05
2022-08-03T03:58:27.232Z,20.07
2022-08-03T04:00:54.294Z,20.07
2022-08-03T04:03:21.708Z,20.04
2022-08-03T04:06:27.664Z,20.02
2022-08-03T04:09:00.480Z,20.00
2022-08-03T04:11:34.499Z,20.00
2022-08-03T04:14:16.450Z,20.03
2022-08-03T04:16:48.788Z,20.05
2022-08-03T04:19:23.414Z,20.05
2022-08-03T04:21:53.200Z,20.08
2022-08-03T04:24:30.755Z,20.07
2022-08-03T04:27:01.179Z,20.08
2022-08-03T04:29:31.304Z,20.10
2022-08-03T04:32:00.729Z,20.11
2022-08-03T04:34:30.646Z,20.13
2022-08-03T04:37:02.168Z,20.14
2022-08-03T04:39:32.389Z,20.12
2022-08-03T04:42:08.243Z,20.14
2022-08-03T04:44:42.104Z,20.14
2022-08-03T04:47:09.240Z,20.16
2022-08-03T04:49:38.414Z,20.19
2022-08-03T04:52:07.934Z,20.19
2022-08-03T04:54:50.126Z,20.24
2022-08-03T04:57:22.946Z,20.27
2022-08-03T05:00:01.376Z,20.32
2022-08-03T05:02:31.167Z,20.33
2022-08-03T05:04:58.701Z,20.37
2022-08-03T05:07:25.783Z,20.39
2022-08-03T05:10:01.699Z,20.44
2022-08-03T05:12:33.912Z,20.48
2022-08-03T05:15:01.871Z,20.51
2022-08-03T05:17:29.226Z,20.53
2022-08-03T05:19:56.855Z,20.59
2022-08-03T05:22:24.297Z,20.64
2022-08-03T05:24:51.326Z,20.69
2022-08-03T05:27:19.687Z,20.76
2022-08-03T05:29:48.033Z,20.82
2022-08-03T05:32:16.331Z,20.91
2022-08-03T05:34:43.868Z,20.96
2022-08-03T05:37:11.181Z,20.99
2022-08-03T05:39:38.527Z,21.08
2022-08-03T05:42:05.517Z,21.12
2022-08-03T05:44:32.668Z,21.18
2022-08-03T05:46:59.847Z,21.27
2022-08-03T05:49:27.041Z,21.31
2022-08-03T05:51:59.945Z,21.36
2022-08-03T05:54:56.736Z,21.42
2022-08-03T05:57:26.198Z,21.45
2022-08-03T05:59:54.764Z,21.51
2022-08-03T06:02:28.590Z,21.55
2022-08-03T06:04:55.590Z,21.62
2022-08-03T06:07:23.354Z,21.69
2022-08-03T06:10:34.208Z,21.77
2022-08-03T06:12:39.205Z,21.87
2022-08-03T06:15:07.732Z,21.95
2022-08-03T06:17:48.495Z,22.13
2022-08-03T06:20:20.059Z,22.36
2022-08-03T06:23:00.119Z,22.57
2022-08-03T06:25:28.128Z,22.66
2022-08-03T06:27:55.044Z,22.66
2022-08-03T06:30:22.025Z,22.65
2022-08-03T06:32:51.876Z,22.70
2022-08-03T06:35:19.835Z,22.88
2022-08-03T06:37:49.361Z,23.08
2022-08-03T06:40:21.845Z,23.27
2022-08-03T06:42:51.528Z,23.32
2022-08-03T06:45:18.696Z,23.33
2022-08-03T06:47:45.738Z,23.38
2022-08-03T06:50:16.916Z,23.24
2022-08-03T06:52:45.462Z,23.23
2022-08-03T06:55:12.471Z,23.25
2022-08-03T06:57:40.160Z,23.21
2022-08-03T07:00:12.276Z,23.25
2022-08-03T07:02:40.213Z,23.37
2022-08-03T07:05:08.259Z,23.35
2022-08-03T07:07:35.458Z,23.37
2022-08-03T07:10:02.660Z,23.28
2022-08-03T07:12:31.325Z,23.26
2022-08-03T07:15:01.798Z,23.25
2022-08-03T07:17:31.264Z,23.38
2022-08-03T07:19:59.479Z,23.50
2022-08-03T07:22:27.505Z,23.48
2022-08-03T07:24:54.594Z,23.46
2022-08-03T07:27:21.621Z,23.46
2022-08-03T07:29:48.818Z,23.61
2022-08-03T07:32:16.370Z,23.87
2022-08-03T07:34:43.383Z,24.27
2022-08-03T07:37:10.423Z,24.52
2022-08-03T07:39:38.508Z,24.73
2022-08-03T07:42:05.743Z,25.06
2022-08-03T07:44:32.862Z,25.30
2022-08-03T07:47:00.110Z,25.48
2022-08-03T07:49:31.032Z,25.58
2022-08-03T07:52:17.805Z,25.66
2022-08-03T07:54:45.009Z,25.45
2022-08-03T07:57:11.842Z,25.31
2022-08-03T07:59:56.357Z,25.41
2022-08-03T08:02:27.405Z,25.75
2022-08-03T08:04:54.390Z,25.84
2022-08-03T08:07:21.354Z,26.08
2022-08-03T08:09:48.354Z,26.28
2022-08-03T08:12:16.003Z,26.12
2022-08-03T08:14:45.881Z,25.89
2022-08-03T08:17:13.643Z,25.87
2022-08-03T08:19:41.502Z,25.98
2022-08-03T08:22:15.588Z,25.79
2022-08-03T08:24:45.108Z,26.02
2022-08-03T08:27:12.339Z,26.19
2022-08-03T08:29:47.576Z,26.34
2022-08-03T08:32:16.557Z,26.38
2022-08-03T08:34:43.809Z,26.37
2022-08-03T08:37:10.708Z,26.34
2022-08-03T08:39:37.540Z,26.48
2022-08-03T08:42:05.203Z,26.78
2022-08-03T08:44:32.244Z,26.74
2022-08-03T08:47:03.794Z,26.38
2022-08-03T08:49:33.310Z,26.14
2022-08-03T08:52:03.446Z,26.28
2022-08-03T08:54:33.320Z,26.18
2022-08-03T08:57:12.420Z,25.78
2022-08-03T08:59:55.734Z,25.55
2022-08-03T09:02:25.497Z,25.59
2022-08-03T09:04:53.304Z,25.77
2022-08-03T09:07:21.111Z,25.64
2022-08-03T09:10:10.019Z,25.48
2022-08-03T09:12:42.821Z,25.99
2022-08-03T09:15:29.346Z,26.45
2022-08-03T09:17:58.305Z,26.68
2022-08-03T09:20:27.368Z,27.09
2022-08-03T09:23:18.043Z,27.25
2022-08-03T09:26:00.076Z,27.77
2022-08-03T09:29:00.466Z,27.45
2022-08-03T09:31:44.313Z,27.07
2022-08-03T09:34:14.554Z,26.88
2022-08-03T09:36:49.786Z,26.92
2022-08-03T09:39:19.639Z,26.92
2022-08-03T09:42:23.731Z,26.98
2022-08-03T09:44:52.315Z,26.91
2022-08-03T09:47:30.285Z,27.03
2022-08-03T09:50:02.213Z,26.89
2022-08-03T09:52:49.617Z,27.05
2022-08-03T09:56:01.616Z,27.22
2022-08-03T09:58:10.930Z,27.34
2022-08-03T10:01:01.111Z,27.47
2022-08-03T10:03:31.265Z,27.24
2022-08-03T10:05:59.956Z,27.09
2022-08-03T10:08:27.751Z,27.26
2022-08-03T10:10:54.879Z,27.13
2022-08-03T10:13:23.261Z,26.97
2022-08-03T10:16:21.867Z,27.16
2022-08-03T10:18:38.699Z,27.57
2022-08-03T10:21:10.595Z,27.79
2022-08-03T10:23:39.124Z,27.71
2022-08-03T10:26:08.173Z,27.60
2022-08-03T10:28:41.567Z,27.90
2022-08-03T10:31:13.223Z,28.14
2022-08-03T10:33:49.635Z,28.09
2022-08-03T10:36:18.644Z,28.06
2022-08-03T10:38:53.406Z,27.75
2022-08-03T10:41:23.480Z,27.72
2022-08-03T10:43:58.973Z,28.18
2022-08-03T10:46:27.064Z,28.36
2022-08-03T10:48:56.762Z,27.98
2022-08-03T10:51:25.141Z,27.94
2022-08-03T10:53:54.804Z,28.59
2022-08-03T10:56:54.467Z,28.82
2022-08-03T10:59:46.398Z,28.57
2022-08-03T11:02:16.518Z,28.41
2022-08-03T11:04:46.925Z,28.37
2022-08-03T11:07:17.705Z,28.09
2022-08-03T11:09:48.585Z,28.31
2022-08-03T11:12:30.423Z,28.64
2022-08-03T11:15:07.649Z,28.85
2022-08-03T11:17:46.252Z,28.64
2022-08-03T11:20:50.904Z,28.24
2022-08-03T11:24:03.304Z,28.16
2022-08-03T11:26:18.751Z,28.34
2022-08-03T11:28:48.208Z,29.13
2022-08-03T11:31:48.546Z,29.52
2022-08-03T11:34:14.867Z,29.03
2022-08-03T11:37:21.855Z,28.90
2022-08-03T11:39:51.674Z,29.19
2022-08-03T11:42:25.250Z,29.07
2022-08-03T11:45:00.185Z,29.00
2022-08-03T11:47:29.633Z,28.96
2022-08-03T11:50:02.237Z,28.98
2022-08-03T11:52:37.558Z,28.97
2022-08-03T11:55:10.479Z,29.26
2022-08-03T11:59:12.973Z,29.35
2022-08-03T12:00:32.479Z,29.73
2022-08-03T12:03:06.020Z,30.06
2022-08-03T12:05:54.676Z,29.93
2022-08-03T12:08:27.741Z,29.55
2022-08-03T12:10:57.445Z,29.58
2022-08-03T12:14:44.122Z,29.88
2022-08-03T12:16:25.066Z,29.66
2022-08-03T12:19:00.198Z,29.40
2022-08-03T12:21:27.847Z,29.23
2022-08-03T12:24:00.510Z,29.35
2022-08-03T12:26:29.559Z,29.70
2022-08-03T12:28:58.486Z,29.42
2022-08-03T12:31:25.858Z,29.66
2022-08-03T12:33:58.722Z,29.96
2022-08-03T12:36:27.205Z,29.97
2022-08-03T12:38:59.789Z,30.51
2022-08-03T12:41:38.345Z,30.71
2022-08-03T12:44:09.766Z,30.61
2022-08-03T12:46:41.642Z,30.17
2022-08-03T12:49:13.600Z,29.99
2022-08-03T12:51:43.401Z,29.94
2022-08-03T12:54:17.561Z,29.99
2022-08-03T12:57:04.248Z,30.17
2022-08-03T12:59:45.197Z,30.40
2022-08-03T13:02:26.475Z,30.55
2022-08-03T13:04:55.306Z,30.51
2022-08-03T13:07:23.395Z,30.66
2022-08-03T13:09:50.874Z,30.55
2022-08-03T13:12:29.270Z,30.53
2022-08-03T13:14:58.760Z,30.42
2022-08-03T13:17:26.926Z,30.17
2022-08-03T13:19:54.062Z,30.30
2022-08-03T13:22:23.811Z,30.57
2022-08-03T13:24:56.062Z,30.89
2022-08-03T13:28:04.929Z,30.90
2022-08-03T13:30:12.409Z,30.74
2022-08-03T13:32:39.553Z,30.42
2022-08-03T13:35:07.871Z,30.69
2022-08-03T13:37:35.548Z,30.74
2022-08-03T13:40:05.524Z,31.02
2022-08-03T13:42:34.516Z,30.91
2022-08-03T13:45:02.205Z,30.96
2022-08-03T13:47:29.255Z,30.97
2022-08-03T13:50:01.664Z,31.20
2022-08-03T13:52:36.690Z,31.28
2022-08-03T13:55:06.778Z,31.34
2022-08-03T13:58:05.099Z,31.13
2022-08-03T14:00:27.059Z,30.97
2022-08-03T14:03:04.020Z,30.50
2022-08-03T14:05:34.865Z,30.36
2022-08-03T14:08:04.983Z,30.13
2022-08-03T14:10:36.910Z,30.15
2022-08-03T14:13:04.700Z,30.39
2022-08-03T14:15:31.789Z,30.37
2022-08-03T14:17:59.380Z,30.55
2022-08-03T14:20:37.828Z,30.73
2022-08-03T14:23:07.615Z,30.76
2022-08-03T14:25:44.280Z,30.83
2022-08-03T14:28:21.164Z,30.91
2022-08-03T14:30:48.863Z,30.86
2022-08-03T14:33:16.504Z,30.75
2022-08-03T14:35:43.642Z,30.51
2022-08-03T14:38:10.558Z,30.64
2022-08-03T14:40:37.807Z,30.89
2022-08-03T14:43:05.144Z,31.02
2022-08-03T14:45:32.335Z,30.94
2022-08-03T14:50:34.227Z,30.89
2022-08-03T14:50:51.450Z,31.16
2022-08-03T14:53:20.529Z,31.38
2022-08-03T14:55:51.585Z,31.64
2022-08-03T14:58:21.813Z,31.77
2022-08-03T15:00:50.971Z,31.87
2022-08-03T15:03:25.661Z,32.24
2022-08-03T15:05:54.303Z,31.85
2022-08-03T15:08:23.075Z,31.55
2022-08-03T15:10:51.264Z,31.50
2022-08-03T15:13:19.878Z,31.96
2022-08-03T15:15:47.959Z,32.00
2022-08-03T15:18:14.893Z,31.51
2022-08-03T15:20:45.305Z,31.43
2022-08-03T15:23:14.481Z,31.11
2022-08-03T15:26:28.586Z,30.66
2022-08-03T15:28:30.780Z,30.85
2022-08-03T15:30:57.715Z,30.70
2022-08-03T15:33:24.723Z,30.67
2022-08-03T15:35:53.147Z,30.49
2022-08-03T15:38:25.745Z,30.54
2022-08-03T15:40:57.389Z,30.81
2022-08-03T15:43:24.944Z,30.88
2022-08-03T15:46:12.860Z,30.87
2022-08-03T15:48:40.409Z,30.83
2022-08-03T15:51:08.435Z,30.80
2022-08-03T15:53:36.429Z,30.87
2022-08-03T15:56:09.837Z,31.00
2022-08-03T15:59:09.105Z,30.95
2022-08-03T16:01:27.176Z,31.00
2022-08-03T16:03:54.334Z,31.06
2022-08-03T16:06:29.757Z,31.24
2022-08-03T16:09:22.851Z,31.40
2022-08-03T16:11:55.477Z,31.38
2022-08-03T16:14:34.253Z,31.25
2022-08-03T16:17:05.675Z,31.25
2022-08-03T16:19:32.968Z,31.17
2022-08-03T16:22:00.851Z,31.11
2022-08-03T16:24:28.376Z,31.28
2022-08-03T16:26:56.339Z,31.37
2022-08-03T16:29:23.927Z,31.38
2022-08-03T16:31:52.447Z,30.99
2022-08-03T16:34:20.991Z,30.80
2022-08-03T16:36:48.201Z,31.13
2022-08-03T16:39:15.430Z,31.91
2022-08-03T16:41:53.942Z,31.48
2022-08-03T16:44:31.368Z,31.44
2022-08-03T16:46:59.984Z,31.33
2022-08-03T16:49:54.352Z,31.06
2022-08-03T16:52:16.703Z,30.82
2022-08-03T16:54:53.224Z,30.89
2022-08-03T16:57:31.886Z,30.87
2022-08-03T17:00:12.111Z,30.94
2022-08-03T17:03:00.093Z,30.68
2022-08-03T17:05:43.560Z,30.55
2022-08-03T17:08:12.914Z,30.50
2022-08-03T17:10:45.229Z,30.19
2022-08-03T17:13:21.785Z,30.05
2022-08-03T17:16:01.591Z,30.12
2022-08-03T17:18:35.927Z,30.11
2022-08-03T17:21:08.015Z,29.74
2022-08-03T17:23:41.138Z,29.31
2022-08-03T17:26:21.159Z,29.11
2022-08-03T17:28:57.996Z,29.14
2022-08-03T17:31:32.165Z,29.03
2022-08-03T17:34:02.086Z,28.79
2022-08-03T17:37:02.154Z,28.65
2022-08-03T17:39:35.797Z,28.45
2022-08-03T17:42:30.466Z,28.38
2022-08-03T17:44:57.945Z,28.15
2022-08-03T17:47:29.220Z,27.89
2022-08-03T17:50:24.235Z,27.64
2022-08-03T17:53:07.196Z,27.54
2022-08-03T17:55:56.628Z,27.43
2022-08-03T17:59:08.882Z,27.18
2022-08-03T18:02:20.984Z,26.99
2022-08-03T18:05:00.724Z,26.74
2022-08-03T18:07:40.875Z,26.65
2022-08-03T18:10:11.387Z,26.54
2022-08-03T18:13:03.195Z,26.52
2022-08-03T18:15:43.259Z,26.43
2022-08-03T18:18:14.382Z,26.37
2022-08-03T18:20:45.690Z,26.39
2022-08-03T18:23:25.105Z,26.38
2022-08-03T18:26:05.194Z,26.39
2022-08-03T18:28:34.769Z,26.28
2022-08-03T18:31:05.938Z,26.19
2022-08-03T18:34:19.773Z,26.14
2022-08-03T18:36:30.444Z,26.07
2022-08-03T18:39:00.283Z,26.03
2022-08-03T18:41:32.505Z,26.01
2022-08-03T18:44:08.129Z,25.89
2022-08-03T18:47:16.552Z,25.83
2022-08-03T18:49:54.153Z,25.77
2022-08-03T18:52:31.040Z,25.73
2022-08-03T18:55:20.861Z,25.67
2022-08-03T18:58:20.684Z,25.53
2022-08-03T19:00:59.921Z,25.45
2022-08-03T19:03:41.506Z,25.37
2022-08-03T19:06:20.062Z,25.29
2022-08-03T19:09:04.944Z,25.20
2022-08-03T19:12:12.739Z,25.17
2022-08-03T19:14:29.777Z,25.08
2022-08-03T19:17:07.378Z,25.00
2022-08-03T19:22:27.336Z,24.82
2022-08-03T19:24:58.553Z,24.75
2022-08-03T19:27:28.151Z,24.69
2022-08-03T19:29:58.890Z,24.62
2022-08-03T19:32:30.486Z,24.58
2022-08-03T19:34:59.818Z,24.51
2022-08-03T19:37:38.413Z,24.48
2022-08-03T19:40:12.358Z,24.47
2022-08-03T19:42:44.664Z,24.42
2022-08-03T19:45:17.236Z,24.35
2022-08-03T19:47:53.326Z,24.29
2022-08-03T19:50:22.102Z,24.22
2022-08-03T19:52:50.954Z,24.08
2022-08-03T19:55:18.815Z,24.04
2022-08-03T19:57:49.259Z,23.95
2022-08-03T20:00:26.606Z,23.91
2022-08-03T20:03:09.253Z,23.83
2022-08-03T20:05:51.930Z,23.78
2022-08-03T20:08:21.419Z,23.70
2022-08-03T20:10:49.797Z,23.64
2022-08-03T20:13:19.780Z,23.62
2022-08-03T20:15:47.108Z,23.54
2022-08-03T20:18:16.887Z,23.51
2022-08-03T20:20:48.377Z,23.46
2022-08-03T20:23:19.830Z,23.39
2022-08-03T20:25:59.426Z,23.32
2022-08-03T20:28:50.314Z,23.31
2022-08-03T20:31:32.120Z,23.28
2022-08-03T20:34:03.595Z,23.24
2022-08-03T20:36:31.013Z,23.20
2022-08-03T20:38:58.874Z,23.18
2022-08-03T20:41:26.804Z,23.19
2022-08-03T20:43:53.977Z,23.16
2022-08-03T20:46:31.756Z,23.14
2022-08-03T20:49:04.021Z,23.10
2022-08-03T20:51:49.585Z,23.03
2022-08-03T20:54:29.134Z,22.93
2022-08-03T20:56:59.854Z,22.88
2022-08-03T20:59:47.136Z,22.82
2022-08-03T21:02:29.531Z,22.78
2022-08-03T21:04:58.744Z,22.73
2022-08-03T21:07:45.676Z,22.71
2022-08-03T21:10:28.520Z,22.73
2022-08-03T21:13:01.993Z,24.90
2022-08-03T21:13:18.227Z,22.77
2022-08-03T21:16:07.146Z,22.80
2022-08-03T21:18:42.391Z,22.79
2022-08-03T21:21:13.995Z,22.81
2022-08-03T21:23:48.682Z,22.78
2022-08-03T21:26:21.925Z,22.74
2022-08-03T21:28:51.166Z,22.72
2022-08-03T21:31:25.485Z,22.68
2022-08-03T21:33:55.431Z,22.69
2022-08-03T21:36:22.827Z,22.63
2022-08-03T21:38:56.244Z,22.65
2022-08-03T21:41:25.699Z,22.58
2022-08-03T21:43:52.837Z,22.52
2022-08-03T21:46:20.882Z,22.50
2022-08-03T21:48:53.206Z,22.42
2022-08-03T21:51:24.406Z,22.40
2022-08-03T21:54:02.525Z,22.35
2022-08-03T21:56:42.166Z,22.31
2022-08-03T21:59:19.994Z,22.27
2022-08-03T22:01:51.565Z,22.23
2022-08-03T22:04:50.886Z,22.19
2022-08-03T22:07:10.235Z,22.18
2022-08-03T22:09:37.421Z,22.12
2022-08-03T22:12:04.831Z,22.08
2022-08-03T22:14:34.910Z,22.03
2022-08-03T22:17:06.194Z,22.02
2022-08-03T22:19:33.476Z,22.04
2022-08-03T22:22:06.165Z,22.05
2022-08-03T22:24:36.477Z,22.04
2022-08-03T22:27:23.077Z,22.03
2022-08-03T22:29:51.540Z,22.00
2022-08-03T22:32:19.659Z,22.00
2022-08-03T22:34:49.287Z,22.01
2022-08-03T22:37:20.034Z,21.96
2022-08-03T22:39:50.612Z,21.94
2022-08-03T22:42:20.002Z,21.91
2022-08-03T22:44:50.645Z,21.90
2022-08-03T22:47:22.758Z,21.92
2022-08-03T22:50:31.877Z,21.91
2022-08-03T22:52:43.239Z,21.91
2022-08-03T22:55:18.887Z,21.88
2022-08-03T22:57:56.131Z,21.85
2022-08-03T23:00:24.479Z,21.84
2022-08-03T23:02:54.178Z,21.79
2022-08-03T23:06:00.873Z,21.76
2022-08-03T23:08:14.857Z,21.74
2022-08-03T23:10:46.967Z,21.71
2022-08-03T23:13:17.544Z,21.71
2022-08-03T23:15:51.528Z,21.66
2022-08-03T23:18:21.591Z,21.61
2022-08-03T23:20:53.310Z,21.60
2022-08-03T23:23:21.173Z,21.61
2022-08-03T23:25:51.108Z,21.61
2022-08-03T23:28:19.619Z,21.61
2022-08-03T23:30:49.901Z,21.63
2022-08-03T23:33:18.072Z,21.65
2022-08-03T23:36:28.891Z,21.65
2022-08-03T23:38:45.148Z,21.65
2022-08-03T23:41:13.733Z,21.64
2022-08-03T23:43:51.909Z,21.62
2022-08-03T23:46:24.476Z,21.58
2022-08-03T23:48:51.455Z,21.55
2022-08-03T23:51:29.484Z,21.55
2022-08-03T23:54:37.074Z,21.51
2022-08-03T23:57:24.407Z,21.50
